createdAt,value
2019-03-23T00:00:46.802Z,100989.14
2019-03-23T00:03:14.152Z,100984.06
2019-03-23T00:05:41.386Z,100985.37
2019-03-23T00:08:08.287Z,100982.77
2019-03-23T00:10:35.589Z,100978.12
2019-03-23T00:13:02.498Z,100983.22
2019-03-23T00:15:29.468Z,100977.67
2019-03-23T00:17:56.747Z,100975.14
2019-03-23T00:20:24.099Z,100963.25
2019-03-23T00:22:52.112Z,100961.12
2019-03-23T00:25:19.436Z,100957.33
2019-03-23T00:27:46.387Z,100963.71
2019-03-23T00:30:13.280Z,100956.48
2019-03-23T00:32:40.233Z,100953.92
2019-03-23T00:35:07.106Z,100956.89
2019-03-23T00:37:35.285Z,100947.98
2019-03-23T00:40:02.252Z,100944.17
2019-03-23T00:42:29.583Z,100944.18
2019-03-23T00:44:56.571Z,100940.80
2019-03-23T00:47:23.861Z,100941.66
2019-03-23T00:49:50.758Z,100934.02
2019-03-23T00:52:17.726Z,100938.68
2019-03-23T00:54:44.628Z,100927.66
2019-03-23T00:57:11.512Z,100925.94
2019-03-23T00:59:38.719Z,100923.39
2019-03-23T01:02:05.675Z,100924.25
2019-03-23T01:04:33.006Z,100927.22
2019-03-23T01:06:59.961Z,100922.98
2019-03-23T01:09:27.208Z,100916.19
2019-03-23T01:11:54.073Z,100910.70
2019-03-23T01:14:20.966Z,100915.36
2019-03-23T01:16:48.245Z,100912.39
2019-03-23T01:19:15.185Z,100903.48
2019-03-23T01:21:42.450Z,100901.77
2019-03-23T01:24:09.432Z,100897.53
2019-03-23T01:26:36.373Z,100906.03
2019-03-23T01:29:04.440Z,100900.94
2019-03-23T01:31:31.324Z,100895.41
2019-03-23T01:33:58.612Z,100889.05
2019-03-23T01:36:25.868Z,100895.00
2019-03-23T01:38:52.767Z,100890.74
2019-03-23T01:41:19.704Z,100888.64
2019-03-23T01:43:46.889Z,100890.75
2019-03-23T01:46:13.782Z,100889.45
2019-03-23T01:48:41.135Z,100884.78
2019-03-23T01:51:08.084Z,100884.34
2019-03-23T01:53:35.299Z,100878.84
2019-03-23T01:56:02.546Z,100875.44
2019-03-23T01:58:29.421Z,100885.61
2019-03-23T02:00:56.752Z,100889.84
2019-03-23T02:03:23.775Z,100888.16
2019-03-23T02:05:51.054Z,100881.80
2019-03-23T02:08:18.313Z,100878.80
2019-03-23T02:10:45.216Z,100873.30
2019-03-23T02:13:12.506Z,100880.94
2019-03-23T02:15:39.756Z,100873.72
2019-03-23T02:18:06.723Z,100881.34
2019-03-23T02:20:33.949Z,100872.44
2019-03-23T02:23:01.101Z,100867.77
2019-03-23T02:25:28.017Z,100871.98
2019-03-23T02:27:55.308Z,100873.66
2019-03-23T02:30:22.560Z,100877.92
2019-03-23T02:32:49.500Z,100876.20
2019-03-23T02:35:16.684Z,100877.07
2019-03-23T02:37:43.663Z,100884.70
2019-03-23T02:40:10.588Z,100876.24
2019-03-23T02:42:37.485Z,100873.25
2019-03-23T02:45:04.421Z,100872.84
2019-03-23T02:47:31.301Z,100868.58
2019-03-23T02:49:58.208Z,100867.30
2019-03-23T02:52:25.185Z,100865.60
2019-03-23T02:54:52.168Z,100870.24
2019-03-23T02:57:19.494Z,100869.83
2019-03-23T02:59:47.494Z,100866.02
2019-03-23T03:02:14.789Z,100868.14
2019-03-23T03:04:41.700Z,100863.47
2019-03-23T03:07:08.677Z,100859.20
2019-03-23T03:09:35.615Z,100856.70
2019-03-23T03:12:02.528Z,100865.16
2019-03-23T03:14:29.826Z,100857.97
2019-03-23T03:16:56.737Z,100860.08
2019-03-23T03:19:24.038Z,100858.84
2019-03-23T03:21:51.303Z,100865.21
2019-03-23T03:24:18.550Z,100857.17
2019-03-23T03:26:45.516Z,100860.99
2019-03-23T03:29:12.423Z,100858.86
2019-03-23T03:31:39.397Z,100852.09
2019-03-23T03:34:06.361Z,100853.36
2019-03-23T03:36:33.328Z,100853.77
2019-03-23T03:39:00.615Z,100860.98
2019-03-23T03:41:29.126Z,100858.86
2019-03-23T03:43:56.088Z,100856.77
2019-03-23T03:46:23.047Z,100854.22
2019-03-23T03:48:50.001Z,100849.95
2019-03-23T03:51:16.943Z,100847.83
2019-03-23T03:53:44.131Z,100850.81
2019-03-23T03:56:11.006Z,100838.09
2019-03-23T03:58:37.946Z,100843.59
2019-03-23T04:01:05.181Z,100841.45
2019-03-23T04:03:32.140Z,100839.73
2019-03-23T04:05:59.478Z,100838.05
2019-03-23T04:08:26.394Z,100831.28
2019-03-23T04:10:53.691Z,100832.10
2019-03-23T04:13:20.652Z,100826.19
2019-03-23T04:15:47.553Z,100827.87
2019-03-23T04:18:14.517Z,100826.59
2019-03-23T04:20:41.428Z,100825.73
2019-03-23T04:23:08.412Z,100822.34
2019-03-23T04:25:35.361Z,100823.61
2019-03-23T04:28:02.370Z,100825.74
2019-03-23T04:30:29.340Z,100825.33
2019-03-23T04:32:56.290Z,100821.93
2019-03-23T04:35:23.268Z,100821.11
2019-03-23T04:37:50.245Z,100818.98
2019-03-23T04:40:17.536Z,100821.11
2019-03-23T04:42:44.780Z,100822.80
2019-03-23T04:45:11.730Z,100827.88
2019-03-23T04:47:38.656Z,100821.11
2019-03-23T04:50:05.553Z,100823.20
2019-03-23T04:52:32.504Z,100819.84
2019-03-23T04:54:59.482Z,100820.25
2019-03-23T04:57:26.500Z,100816.84
2019-03-23T04:59:53.380Z,100830.83
2019-03-23T05:02:20.250Z,100830.41
2019-03-23T05:04:47.394Z,100827.02
2019-03-23T05:07:14.552Z,100826.14
2019-03-23T05:09:41.469Z,100828.68
2019-03-23T05:12:08.436Z,100835.03
2019-03-23T05:14:35.416Z,100837.58
2019-03-23T05:17:02.644Z,100830.36
2019-03-23T05:19:29.526Z,100831.62
2019-03-23T05:21:56.743Z,100831.17
2019-03-23T05:24:23.717Z,100832.43
2019-03-23T05:26:50.612Z,100832.84
2019-03-23T05:29:19.037Z,100825.64
2019-03-23T05:31:45.901Z,100832.43
2019-03-23T05:34:12.800Z,100832.84
2019-03-23T05:36:39.691Z,100834.52
2019-03-23T05:39:06.673Z,100829.89
2019-03-23T05:41:34.653Z,100837.08
2019-03-23T05:44:01.909Z,100831.18
2019-03-23T05:46:28.878Z,100832.89
2019-03-23T05:48:55.822Z,100840.53
2019-03-23T05:51:23.173Z,100842.26
2019-03-23T05:53:51.078Z,100838.91
2019-03-23T05:56:18.993Z,100843.14
2019-03-23T05:58:45.894Z,100841.09
2019-03-23T06:01:12.844Z,100841.48
2019-03-23T06:03:40.042Z,100849.55
2019-03-23T06:06:06.925Z,100844.08
2019-03-23T06:08:34.251Z,100844.89
2019-03-23T06:11:02.297Z,100849.53
2019-03-23T06:13:30.578Z,100842.28
2019-03-23T06:15:57.586Z,100846.47
2019-03-23T06:18:24.893Z,100845.14
2019-03-23T06:20:52.126Z,100849.75
2019-03-23T06:23:19.278Z,100848.39
2019-03-23T06:25:46.550Z,100844.44
2019-03-23T06:28:14.417Z,100837.48
2019-03-23T06:30:41.401Z,100839.08
2019-03-23T06:33:08.352Z,100844.94
2019-03-23T06:35:35.306Z,100846.09
2019-03-23T06:38:02.268Z,100843.91
2019-03-23T06:40:29.173Z,100845.92
2019-03-23T06:42:59.817Z,100844.96
2019-03-23T06:45:24.664Z,100846.11
2019-03-23T06:47:51.615Z,100848.14
2019-03-23T06:50:18.989Z,100850.13
2019-03-23T06:52:45.871Z,100850.03
2019-03-23T06:55:13.217Z,100847.27
2019-03-23T06:57:40.191Z,100839.45
2019-03-23T07:00:07.574Z,100836.27
2019-03-23T07:02:34.938Z,100839.02
2019-03-23T07:05:01.893Z,100842.56
2019-03-23T07:07:29.149Z,100841.50
2019-03-23T07:09:56.388Z,100840.84
2019-03-23T07:12:23.634Z,100835.84
2019-03-23T07:14:50.540Z,100834.24
2019-03-23T07:17:17.489Z,100832.27
2019-03-23T07:19:44.681Z,100833.55
2019-03-23T07:22:11.684Z,100829.27
2019-03-23T07:24:38.644Z,100837.81
2019-03-23T07:27:05.570Z,100843.45
2019-03-23T07:29:32.538Z,100835.39
2019-03-23T07:32:05.718Z,100842.65
2019-03-23T07:34:28.611Z,100840.01
2019-03-23T07:36:55.968Z,100838.62
2019-03-23T07:39:28.004Z,100834.10
2019-03-23T07:41:51.499Z,100832.46
2019-03-23T07:44:18.862Z,100838.92
2019-03-23T07:46:45.813Z,100833.83
2019-03-23T07:49:12.969Z,100835.55
2019-03-23T07:51:39.876Z,100830.28
2019-03-23T07:54:06.846Z,100842.63
2019-03-23T07:56:33.733Z,100833.17
2019-03-23T07:59:01.033Z,100842.07
2019-03-23T08:01:28.031Z,100837.88
2019-03-23T08:03:54.905Z,100836.70
2019-03-23T08:06:22.815Z,100836.81
2019-03-23T08:08:49.715Z,100835.42
2019-03-23T08:11:16.624Z,100837.94
2019-03-23T08:13:44.593Z,100834.38
2019-03-23T08:16:11.909Z,100839.30
2019-03-23T08:18:39.146Z,100843.02
2019-03-23T08:21:06.299Z,100843.78
2019-03-23T08:23:33.564Z,100837.03
2019-03-23T08:26:00.804Z,100839.93
2019-03-23T08:28:27.713Z,100837.21
2019-03-23T08:30:54.680Z,100835.34
2019-03-23T08:33:21.622Z,100834.70
2019-03-23T08:35:48.785Z,100837.84
2019-03-23T08:38:15.739Z,100835.13
2019-03-23T08:40:42.727Z,100828.66
2019-03-23T08:43:10.105Z,100829.09
2019-03-23T08:45:36.982Z,100832.38
2019-03-23T08:48:03.926Z,100834.61
2019-03-23T08:50:32.573Z,100831.05
2019-03-23T08:52:59.659Z,100833.91
2019-03-23T08:55:27.044Z,100821.77
2019-03-23T08:57:53.948Z,100823.05
2019-03-23T09:00:21.372Z,100817.48
2019-03-23T09:02:48.320Z,100817.00
2019-03-23T09:05:15.628Z,100819.14
2019-03-23T09:07:44.005Z,100816.05
2019-03-23T09:10:10.986Z,100812.61
2019-03-23T09:12:37.947Z,100805.66
2019-03-23T09:15:05.195Z,100800.47
2019-03-23T09:17:32.118Z,100798.27
2019-03-23T09:19:59.082Z,100795.21
2019-03-23T09:22:26.024Z,100802.42
2019-03-23T09:24:57.121Z,100801.55
2019-03-23T09:27:21.811Z,100790.73
2019-03-23T09:29:49.080Z,100798.88
2019-03-23T09:32:16.329Z,100795.83
2019-03-23T09:34:43.294Z,100796.59
2019-03-23T09:37:10.257Z,100794.39
2019-03-23T09:39:37.128Z,100796.06
2019-03-23T09:42:04.004Z,100790.87
2019-03-23T09:44:30.969Z,100789.97
2019-03-23T09:46:57.925Z,100786.91
2019-03-23T09:49:24.886Z,100790.77
2019-03-23T09:51:52.193Z,100791.62
2019-03-23T09:54:19.072Z,100784.75
2019-03-23T09:56:45.962Z,100789.44
2019-03-23T09:59:12.918Z,100790.77
2019-03-23T10:01:39.865Z,100789.53
2019-03-23T10:04:06.735Z,100788.63
2019-03-23T10:06:33.674Z,100788.63
2019-03-23T10:09:00.915Z,100784.75
2019-03-23T10:11:29.712Z,100784.75
2019-03-23T10:13:56.702Z,100782.19
2019-03-23T10:16:23.916Z,100786.91
2019-03-23T10:18:50.996Z,100784.33
2019-03-23T10:21:17.936Z,100784.33
2019-03-23T10:23:44.834Z,100778.80
2019-03-23T10:26:11.700Z,100781.38
2019-03-23T10:28:38.581Z,100782.19
2019-03-23T10:31:05.785Z,100783.95
2019-03-23T10:33:32.672Z,100782.19
2019-03-23T10:36:00.866Z,100788.20
2019-03-23T10:38:27.766Z,100784.33
2019-03-23T10:40:54.650Z,100778.38
2019-03-23T10:43:21.634Z,100779.23
2019-03-23T10:45:48.557Z,100780.09
2019-03-23T10:48:15.869Z,100776.70
2019-03-23T10:50:43.086Z,100776.75
2019-03-23T10:53:10.235Z,100780.28
2019-03-23T10:55:37.132Z,100773.84
2019-03-23T10:58:04.545Z,100776.33
2019-03-23T11:00:31.790Z,100777.61
2019-03-23T11:02:58.669Z,100771.95
2019-03-23T11:05:25.541Z,100777.52
2019-03-23T11:07:52.421Z,100777.03
2019-03-23T11:10:20.729Z,100781.27
2019-03-23T11:12:48.774Z,100775.73
2019-03-23T11:15:16.030Z,100775.73
2019-03-23T11:17:42.933Z,100770.97
2019-03-23T11:20:10.256Z,100769.64
2019-03-23T11:22:37.592Z,100772.59
2019-03-23T11:25:04.594Z,100765.34
2019-03-23T11:27:31.585Z,100761.06
2019-03-23T11:29:58.605Z,100760.19
2019-03-23T11:32:25.531Z,100762.30
2019-03-23T11:34:52.866Z,100763.16
2019-03-23T11:37:19.855Z,100767.40
2019-03-23T11:39:47.249Z,100765.30
2019-03-23T11:42:14.497Z,100762.25
2019-03-23T11:44:41.422Z,100760.48
2019-03-23T11:47:08.342Z,100761.77
2019-03-23T11:49:35.338Z,100761.77
2019-03-23T11:52:02.313Z,100760.86
2019-03-23T11:54:29.657Z,100754.84
2019-03-23T11:56:56.859Z,100760.80
2019-03-23T11:59:23.764Z,100767.72
2019-03-23T12:01:52.034Z,100762.56
2019-03-23T12:04:19.672Z,100756.56
2019-03-23T12:06:46.639Z,100747.97
2019-03-23T12:09:13.515Z,100754.84
2019-03-23T12:11:40.450Z,100744.54
2019-03-23T12:14:07.335Z,100744.05
2019-03-23T12:16:34.300Z,100747.92
2019-03-23T12:19:01.542Z,100746.63
2019-03-23T12:21:28.413Z,100749.20
2019-03-23T12:23:55.623Z,100746.63
2019-03-23T12:26:22.770Z,100753.06
2019-03-23T12:28:49.675Z,100743.53
2019-03-23T12:31:16.666Z,100742.66
2019-03-23T12:33:43.615Z,100736.66
2019-03-23T12:36:10.864Z,100740.09
2019-03-23T12:38:37.763Z,100732.36
2019-03-23T12:41:14.248Z,100742.17
2019-03-23T12:43:33.863Z,100738.31
2019-03-23T12:46:00.820Z,100744.75
2019-03-23T12:48:28.830Z,100741.30
2019-03-23T12:50:55.709Z,100739.61
2019-03-23T12:53:22.596Z,100741.30
2019-03-23T12:55:49.511Z,100734.02
2019-03-23T12:58:16.458Z,100736.98
2019-03-23T13:00:43.485Z,100730.52
2019-03-23T13:03:10.353Z,100730.91
2019-03-23T13:05:37.240Z,100731.70
2019-03-23T13:08:04.136Z,100729.56
2019-03-23T13:10:31.094Z,100728.28
2019-03-23T13:12:58.483Z,100718.36
2019-03-23T13:15:25.495Z,100720.50
2019-03-23T13:17:52.480Z,100717.92
2019-03-23T13:20:19.560Z,100715.78
2019-03-23T13:22:46.934Z,100717.07
2019-03-23T13:25:16.848Z,100716.14
2019-03-23T13:27:46.166Z,100719.11
2019-03-23T13:32:41.504Z,100713.95
2019-03-23T13:35:08.837Z,100709.23
2019-03-23T13:37:35.737Z,100710.03
2019-03-23T13:40:02.814Z,100706.17
2019-03-23T13:42:30.606Z,100709.98
2019-03-23T13:44:58.128Z,100712.17
2019-03-23T13:47:25.515Z,100713.84
2019-03-23T13:49:52.467Z,100708.27
2019-03-23T13:52:19.951Z,100710.78
2019-03-23T13:54:47.152Z,100706.02
2019-03-23T13:57:14.343Z,100706.81
2019-03-23T13:59:41.276Z,100701.66
2019-03-23T14:02:08.169Z,100705.52
2019-03-23T14:04:36.452Z,100705.52
2019-03-23T14:07:03.709Z,100703.33
2019-03-23T14:09:31.150Z,100706.77
2019-03-23T14:11:58.722Z,100712.77
2019-03-23T14:14:26.350Z,100707.20
2019-03-23T14:16:54.037Z,100707.20
2019-03-23T14:19:20.985Z,100708.91
2019-03-23T14:21:50.961Z,100715.34
2019-03-23T14:24:17.829Z,100709.77
2019-03-23T14:26:45.060Z,100708.91
2019-03-23T14:29:12.024Z,100711.42
2019-03-23T14:31:38.961Z,100705.03
2019-03-23T14:34:05.854Z,100702.84
2019-03-23T14:36:33.041Z,100703.64
2019-03-23T14:39:00.273Z,100709.17
2019-03-23T14:41:27.632Z,100705.37
2019-03-23T14:43:56.238Z,100707.56
2019-03-23T14:46:23.263Z,100698.08
2019-03-23T14:48:50.280Z,100701.50
2019-03-23T14:51:17.227Z,100699.36
2019-03-23T14:53:44.203Z,100703.23
2019-03-23T14:56:11.158Z,100710.95
2019-03-23T14:58:38.489Z,100701.55
2019-03-23T15:01:05.716Z,100707.09
2019-03-23T15:03:33.044Z,100709.28
2019-03-23T15:06:00.464Z,100702.05
2019-03-23T15:08:27.490Z,100714.48
2019-03-23T15:10:54.778Z,100714.92
2019-03-23T15:13:21.734Z,100716.16
2019-03-23T15:15:49.070Z,100717.50
2019-03-23T15:18:16.352Z,100714.55
2019-03-23T15:20:43.353Z,100721.37
2019-03-23T15:23:10.451Z,100720.49
2019-03-23T15:25:39.454Z,100717.97
2019-03-23T15:28:05.997Z,100719.80
2019-03-23T15:30:33.394Z,100708.70
2019-03-23T15:33:00.637Z,100710.89
2019-03-23T15:35:27.516Z,100712.17
2019-03-23T15:37:54.514Z,100710.89
2019-03-23T15:40:21.533Z,100717.33
2019-03-23T15:42:48.430Z,100717.33
2019-03-23T15:45:15.297Z,100713.05
2019-03-23T15:47:42.221Z,100711.37
2019-03-23T15:50:09.490Z,100717.44
2019-03-23T15:52:36.724Z,100718.72
2019-03-23T15:55:03.609Z,100721.78
2019-03-23T15:57:31.564Z,100718.41
2019-03-23T15:59:58.498Z,100718.87
2019-03-23T16:02:25.741Z,100720.50
2019-03-23T16:04:52.677Z,100726.94
2019-03-23T16:09:48.113Z,100723.07
2019-03-23T16:12:15.131Z,100727.04
2019-03-23T16:14:42.323Z,100726.66
2019-03-23T16:17:09.892Z,100718.93
2019-03-23T16:19:40.235Z,100727.94
2019-03-23T16:22:07.620Z,100728.33
2019-03-23T16:24:35.633Z,100727.04
2019-03-23T16:27:02.517Z,100732.19
2019-03-23T16:29:29.774Z,100733.86
2019-03-23T16:31:56.994Z,100732.99
2019-03-23T16:34:23.937Z,100738.14
2019-03-23T16:36:51.964Z,100742.05
2019-03-23T16:39:18.853Z,100751.12
2019-03-23T16:41:45.815Z,100742.11
2019-03-23T16:44:13.028Z,100740.45
2019-03-23T16:46:39.977Z,100740.51
2019-03-23T16:49:07.341Z,100744.27
2019-03-23T16:51:34.249Z,100746.45
2019-03-23T16:54:03.593Z,100749.47
2019-03-23T16:56:30.324Z,100758.44
2019-03-23T16:58:57.659Z,100755.86
2019-03-23T17:01:24.690Z,100763.69
2019-03-23T17:03:52.668Z,100769.29
2019-03-23T17:06:19.875Z,100772.72
2019-03-23T17:08:48.826Z,100781.39
2019-03-23T17:11:16.064Z,100781.52
2019-03-23T17:13:43.418Z,100793.95
2019-03-23T17:16:10.291Z,100796.53
2019-03-23T17:18:37.573Z,100801.67
2019-03-23T17:21:08.261Z,100805.64
2019-03-23T17:23:35.196Z,100807.45
2019-03-23T17:26:02.086Z,100812.27
2019-03-23T17:28:29.417Z,100812.66
2019-03-23T17:30:56.333Z,100818.85
2019-03-23T17:33:23.363Z,100824.25
2019-03-23T17:35:50.291Z,100826.97
2019-03-23T17:38:17.909Z,100838.30
2019-03-23T17:40:45.475Z,100842.25
2019-03-23T17:43:16.931Z,100847.92
2019-03-23T17:45:44.013Z,100856.93
2019-03-23T17:48:11.856Z,100856.98
2019-03-23T17:50:46.852Z,100864.75
2019-03-23T17:53:13.964Z,100869.69
2019-03-23T17:55:41.019Z,100882.58
2019-03-23T17:58:07.992Z,100889.14
2019-03-23T18:00:35.696Z,100889.18
2019-03-23T18:03:02.947Z,100897.92
2019-03-23T18:05:29.889Z,100901.77
2019-03-23T18:07:56.937Z,100912.30
2019-03-23T18:10:24.312Z,100919.63
2019-03-23T18:12:51.269Z,100916.62
2019-03-23T18:15:18.592Z,100923.70
2019-03-23T18:17:45.585Z,100923.91
2019-03-23T18:20:12.797Z,100928.69
2019-03-23T18:22:39.775Z,100933.38
2019-03-23T18:25:06.995Z,100933.05
2019-03-23T18:27:34.382Z,100944.62
2019-03-23T18:30:01.595Z,100954.00
2019-03-23T18:32:30.498Z,100953.53
2019-03-23T18:34:57.745Z,100959.14
2019-03-23T18:37:24.989Z,100965.92
2019-03-23T18:39:52.240Z,100970.28
2019-03-23T18:42:19.508Z,100978.88
2019-03-23T18:44:46.443Z,100981.45
2019-03-23T18:47:13.590Z,100984.06
2019-03-23T18:49:40.512Z,100990.45
2019-03-23T18:52:08.828Z,100991.80
2019-03-23T18:54:35.810Z,100994.84
2019-03-23T18:57:03.240Z,100997.80
2019-03-23T18:59:30.196Z,101004.66
2019-03-23T19:01:57.068Z,101006.83
2019-03-23T19:04:24.524Z,101012.47
2019-03-23T19:06:51.832Z,101011.33
2019-03-23T19:09:18.778Z,101016.14
2019-03-23T19:11:46.022Z,101026.42
2019-03-23T19:14:12.970Z,101021.73
2019-03-23T19:16:41.157Z,101024.77
2019-03-23T19:19:08.438Z,101024.91
2019-03-23T19:21:35.411Z,101034.81
2019-03-23T19:24:02.361Z,101037.88
2019-03-23T19:26:29.762Z,101044.30
2019-03-23T19:28:56.814Z,101048.16
2019-03-23T19:31:24.271Z,101050.27
2019-03-23T19:33:51.922Z,101049.73
2019-03-23T19:36:19.308Z,101051.61
2019-03-23T19:38:46.299Z,101053.88
2019-03-23T19:41:13.253Z,101058.56
2019-03-23T19:43:48.234Z,101069.66
2019-03-23T19:46:09.248Z,101070.97
2019-03-23T19:48:36.446Z,101075.38
2019-03-23T19:51:03.879Z,101078.36
2019-03-23T19:53:30.999Z,101081.72
2019-03-23T19:55:57.862Z,101080.34
2019-03-23T19:58:24.830Z,101089.98
2019-03-23T20:00:51.784Z,101096.97
2019-03-23T20:03:19.283Z,101098.40
2019-03-23T20:05:46.857Z,101095.94
2019-03-23T20:08:14.051Z,101096.94
2019-03-23T20:10:41.103Z,101095.31
2019-03-23T20:13:08.045Z,101099.65
2019-03-23T20:15:35.011Z,101097.97
2019-03-23T20:18:02.370Z,101101.43
2019-03-23T20:20:29.321Z,101098.08
2019-03-23T20:22:56.282Z,101099.86
2019-03-23T20:25:23.345Z,101101.19
2019-03-23T20:27:50.297Z,101103.31
2019-03-23T20:30:17.601Z,101104.26
2019-03-23T20:32:44.611Z,101096.24
2019-03-23T20:35:11.591Z,101097.14
2019-03-23T20:37:38.717Z,101096.36
2019-03-23T20:40:05.681Z,101089.18
2019-03-23T20:42:32.967Z,101091.77
2019-03-23T20:45:00.323Z,101095.63
2019-03-23T20:47:27.537Z,101098.20
2019-03-23T20:49:54.443Z,101093.95
2019-03-23T20:52:21.656Z,101085.48
2019-03-23T20:54:48.641Z,101092.77
2019-03-23T20:57:23.817Z,101091.16
2019-03-23T20:59:45.271Z,101098.94
2019-03-23T21:02:12.194Z,101096.07
2019-03-23T21:04:39.655Z,101098.66
2019-03-23T21:07:06.636Z,101097.41
2019-03-23T21:09:33.961Z,101091.48
2019-03-23T21:12:01.000Z,101088.15
2019-03-23T21:14:28.286Z,101090.30
2019-03-23T21:16:55.294Z,101089.89
2019-03-23T21:19:22.220Z,101086.90
2019-03-23T21:21:49.289Z,101087.38
2019-03-23T21:24:16.263Z,101081.88
2019-03-23T21:26:44.276Z,101083.63
2019-03-23T21:29:11.218Z,101085.43
2019-03-23T21:31:38.083Z,101074.44
2019-03-23T21:34:04.969Z,101074.46
2019-03-23T21:36:32.214Z,101066.84
2019-03-23T21:38:59.182Z,101067.33
2019-03-23T21:41:26.618Z,101065.17
2019-03-23T21:43:53.550Z,101067.75
2019-03-23T21:46:20.443Z,101067.80
2019-03-23T21:48:47.765Z,101062.73
2019-03-23T21:51:14.648Z,101061.02
2019-03-23T21:53:42.161Z,101067.41
2019-03-23T21:56:09.070Z,101068.27
2019-03-23T21:58:36.029Z,101068.27
2019-03-23T22:01:03.206Z,101060.17
2019-03-23T22:03:30.564Z,101062.72
2019-03-23T22:05:57.450Z,101062.36
2019-03-23T22:08:24.349Z,101066.19
2019-03-23T22:10:51.601Z,101066.59
2019-03-23T22:13:18.940Z,101058.51
2019-03-23T22:15:46.207Z,101059.77
2019-03-23T22:18:13.559Z,101062.27
2019-03-23T22:20:40.812Z,101063.53
2019-03-23T22:23:08.057Z,101069.05
2019-03-23T22:25:35.427Z,101069.48
2019-03-23T22:28:02.395Z,101061.41
2019-03-23T22:30:29.724Z,101065.23
2019-03-23T22:32:56.709Z,101059.67
2019-03-23T22:35:23.922Z,101055.05
2019-03-23T22:37:51.171Z,101048.67
2019-03-23T22:40:18.146Z,101056.78
2019-03-23T22:42:45.092Z,101055.89
2019-03-23T22:45:12.318Z,101055.84
2019-03-23T22:47:40.330Z,101050.69
2019-03-23T22:50:07.248Z,101048.97
2019-03-23T22:52:34.183Z,101052.40
2019-03-23T22:55:01.073Z,101050.73
2019-03-23T22:57:28.035Z,101056.30
2019-03-23T22:59:55.061Z,101051.59
2019-03-23T23:02:22.273Z,101049.88
2019-03-23T23:04:49.182Z,101050.30
2019-03-23T23:07:16.483Z,101048.17
2019-03-23T23:09:43.441Z,101048.22
2019-03-23T23:12:10.397Z,101049.50
2019-03-23T23:14:40.088Z,101048.22
2019-03-23T23:17:07.309Z,101044.83
2019-03-23T23:19:34.240Z,101038.00
2019-03-23T23:22:01.139Z,101042.28
2019-03-23T23:24:28.561Z,101042.75
2019-03-23T23:26:55.436Z,101045.33
2019-03-23T23:29:22.350Z,100996.06
2019-03-23T23:31:49.606Z,101042.70
2019-03-23T23:34:16.536Z,101035.47
2019-03-23T23:36:43.708Z,101032.09
2019-03-23T23:39:10.577Z,101037.20
2019-03-23T23:41:37.797Z,101040.15
2019-03-23T23:44:05.082Z,101030.34
2019-03-23T23:46:32.413Z,101036.73
2019-03-23T23:48:59.661Z,101029.94
2019-03-23T23:51:26.556Z,101029.91
2019-03-23T23:53:53.493Z,101034.57
2019-03-23T23:56:20.389Z,101027.73
2019-03-23T23:58:47.664Z,101028.55
